Terminal Aerodrome Forecast
Issued by NWS Wilmington, NC

Home | Current Version | Previous Version | Text Only | Print | Product List | Glossary On
Versions: 1 2 3 4 5 6 7 8 9 10 11 12 13 14
000
FTUS42 KILM 310500
TAFMYR
TAF
KMYR 310525Z 3106/0106 15005KT P6SM FEW020
     FM310800 VRB03KT P6SM VCSH SCT010 SCT020 SCT200
      TEMPO 3109/3113 BKN020
     FM311500 17010KT P6SM FEW020 SCT035
      AMD LTD TO CLD VIS AND WIND TIL 311100=

USA.gov is the U.S. government's official web portal to all federal, state and local government web resources and services.